Terminal Aerodrome Forecast
Issued by NWS Shreveport, LA

Home | Current Version | Previous Version | Text Only | Print | Product List | Glossary On
Versions: 1 2 3 4 5 6 7 8 9 10 11 12 13 14
000
FTUS44 KSHV 141100
TAFLFK
TAF
KLFK 141122Z 1412/1512 VRB04KT P6SM SCT250
     FM141900 23008KT P6SM SCT050
     FM150900 19005KT P6SM VCTS SCT040 BKN120CB=

USA.gov is the U.S. government's official web portal to all federal, state and local government web resources and services.